createdAt,value
2022-11-21T00:01:53.317Z,72.10
2022-11-21T00:03:55.021Z,72.10
2022-11-21T00:05:56.635Z,72.20
2022-11-21T00:07:58.705Z,72.30
2022-11-21T00:10:00.318Z,72.10
2022-11-21T00:12:01.935Z,72.20
2022-11-21T00:14:03.544Z,72.30
2022-11-21T00:16:06.469Z,72.10
2022-11-21T00:18:08.126Z,72.10
2022-11-21T00:20:09.933Z,72.20
2022-11-21T00:22:11.599Z,72.20
2022-11-21T00:24:13.404Z,72.10
2022-11-21T00:26:15.972Z,72.10
2022-11-21T00:28:17.575Z,72.10
2022-11-21T00:30:19.191Z,72.30
2022-11-21T00:32:20.829Z,72.40
2022-11-21T00:34:22.517Z,72.30
2022-11-21T00:36:24.186Z,72.30
2022-11-21T00:38:27.017Z,72.20
2022-11-21T00:40:28.674Z,72.20
2022-11-21T00:42:30.351Z,72.20
2022-11-21T00:44:31.983Z,72.00
2022-11-21T00:46:33.601Z,71.90
2022-11-21T00:48:35.347Z,72.10
2022-11-21T00:50:36.996Z,72.20
2022-11-21T00:52:38.665Z,72.10
2022-11-21T00:54:40.391Z,72.10
2022-11-21T00:56:42.100Z,72.00
2022-11-21T00:58:43.727Z,72.00
2022-11-21T01:00:45.352Z,72.20
2022-11-21T01:02:47.083Z,72.30
2022-11-21T01:04:48.731Z,72.50
2022-11-21T01:06:50.368Z,72.50
2022-11-21T01:08:51.988Z,72.60
2022-11-21T01:10:53.628Z,72.50
2022-11-21T01:12:55.299Z,72.50
2022-11-21T01:14:56.963Z,72.50
2022-11-21T01:16:58.565Z,72.60
2022-11-21T01:19:00.229Z,72.70
2022-11-21T01:21:02.903Z,72.70
2022-11-21T01:23:04.534Z,72.80
2022-11-21T01:25:06.547Z,73.00
2022-11-21T01:27:08.198Z,73.00
2022-11-21T01:29:10.146Z,73.00
2022-11-21T01:31:13.753Z,73.00
2022-11-21T01:33:15.419Z,72.70
2022-11-21T01:35:17.435Z,72.60
2022-11-21T01:37:19.053Z,72.40
2022-11-21T01:39:20.665Z,72.40
2022-11-21T01:41:24.349Z,72.20
2022-11-21T01:43:26.072Z,72.40
2022-11-21T01:45:46.228Z,72.40
2022-11-21T01:47:47.913Z,72.30
2022-11-21T01:49:51.122Z,72.30
2022-11-21T01:51:55.797Z,72.50
2022-11-21T01:53:57.427Z,72.40
2022-11-21T01:55:59.079Z,72.20
2022-11-21T01:58:01.312Z,72.40
2022-11-21T02:00:11.184Z,72.40
2022-11-21T02:02:14.967Z,72.50
2022-11-21T02:04:16.809Z,72.50
2022-11-21T02:06:18.494Z,72.40
2022-11-21T02:08:21.163Z,72.40
2022-11-21T02:10:23.199Z,72.20
2022-11-21T02:12:31.069Z,72.20
2022-11-21T02:14:33.215Z,72.20
2022-11-21T02:16:35.270Z,72.10
2022-11-21T02:18:36.974Z,72.10
2022-11-21T02:20:40.214Z,72.10
2022-11-21T02:22:49.837Z,72.00
2022-11-21T02:25:00.466Z,71.90
2022-11-21T02:27:02.336Z,71.90
2022-11-21T02:29:04.030Z,72.10
2022-11-21T02:31:05.726Z,72.20
2022-11-21T02:33:07.394Z,72.10
2022-11-21T02:35:09.161Z,72.00
2022-11-21T02:37:10.838Z,72.00
2022-11-21T02:39:23.655Z,72.00
2022-11-21T02:41:28.746Z,71.90
2022-11-21T02:43:37.436Z,71.80
2022-11-21T02:45:40.092Z,71.90
2022-11-21T02:47:42.449Z,72.10
2022-11-21T02:50:02.689Z,72.10
2022-11-21T02:52:04.450Z,72.10
2022-11-21T02:54:06.051Z,72.10
2022-11-21T02:56:07.728Z,72.10
2022-11-21T02:58:10.044Z,72.30
2022-11-21T03:00:12.163Z,72.10
2022-11-21T03:02:13.749Z,72.10
2022-11-21T03:04:15.354Z,72.20
2022-11-21T03:06:17.083Z,72.20
2022-11-21T03:08:18.719Z,72.40
2022-11-21T03:10:20.597Z,72.50
2022-11-21T03:12:22.246Z,72.50
2022-11-21T03:14:23.893Z,72.50
2022-11-21T03:16:25.532Z,72.50
2022-11-21T03:18:27.163Z,72.60
2022-11-21T03:20:29.543Z,72.50
2022-11-21T03:22:31.180Z,72.60
2022-11-21T03:24:32.879Z,72.50
2022-11-21T03:26:34.535Z,72.40
2022-11-21T03:28:36.171Z,72.50
2022-11-21T03:30:37.780Z,72.40
2022-11-21T03:32:39.389Z,72.50
2022-11-21T03:34:41.035Z,72.60
2022-11-21T03:36:42.760Z,72.60
2022-11-21T03:38:44.473Z,72.50
2022-11-21T03:40:46.142Z,73.30
2022-11-21T03:42:47.809Z,72.70
2022-11-21T03:44:49.408Z,72.90
2022-11-21T03:46:51.091Z,73.00
2022-11-21T03:48:52.695Z,72.80
2022-11-21T03:50:54.342Z,72.70
2022-11-21T03:52:55.941Z,72.60
2022-11-21T03:54:57.594Z,72.70
2022-11-21T03:56:59.194Z,72.60
2022-11-21T03:59:01.004Z,72.60
2022-11-21T04:01:02.775Z,72.60
2022-11-21T04:03:04.525Z,72.60
2022-11-21T04:05:06.286Z,72.70
2022-11-21T04:07:08.007Z,72.80
2022-11-21T04:09:09.697Z,72.80
2022-11-21T04:11:11.540Z,72.80
2022-11-21T04:13:13.217Z,72.50
2022-11-21T04:15:14.940Z,72.50
2022-11-21T04:17:16.587Z,72.40
2022-11-21T04:19:18.220Z,72.50
2022-11-21T04:21:19.932Z,72.50
2022-11-21T04:23:21.562Z,72.50
2022-11-21T04:25:23.172Z,72.50
2022-11-21T04:27:24.898Z,72.60
2022-11-21T04:29:26.611Z,72.60
2022-11-21T04:31:28.327Z,72.70
2022-11-21T04:33:30.175Z,72.90
2022-11-21T04:35:31.869Z,73.00
2022-11-21T04:37:33.653Z,72.90
2022-11-21T04:39:35.274Z,73.00
2022-11-21T04:41:36.974Z,72.90
2022-11-21T04:43:38.695Z,72.70
2022-11-21T04:45:40.372Z,72.50
2022-11-21T04:47:43.099Z,72.40
2022-11-21T04:49:44.750Z,72.30
2022-11-21T04:51:46.339Z,72.20
2022-11-21T04:53:47.938Z,72.10
2022-11-21T04:55:49.544Z,72.20
2022-11-21T04:57:51.203Z,72.20
2022-11-21T04:59:52.837Z,72.10
2022-11-21T05:01:54.506Z,72.10
2022-11-21T05:03:56.203Z,72.00
2022-11-21T05:05:57.851Z,72.00
2022-11-21T05:07:59.490Z,72.20
2022-11-21T05:10:01.196Z,72.30
2022-11-21T05:12:21.737Z,72.40
2022-11-21T05:14:26.394Z,72.50
2022-11-21T05:16:28.478Z,72.60
2022-11-21T05:18:30.666Z,72.70
2022-11-21T05:20:36.604Z,72.80
2022-11-21T05:22:38.536Z,72.80
2022-11-21T05:24:40.401Z,72.80
2022-11-21T05:26:42.293Z,72.80
2022-11-21T05:28:44.033Z,72.80
2022-11-21T05:30:45.665Z,72.60
2022-11-21T05:32:47.261Z,72.50
2022-11-21T05:34:48.899Z,72.40
2022-11-21T05:36:57.023Z,72.30
2022-11-21T05:38:58.704Z,72.30
2022-11-21T05:41:00.478Z,72.00
2022-11-21T05:43:20.988Z,72.00
2022-11-21T05:45:22.587Z,72.10
2022-11-21T05:47:24.193Z,72.00
2022-11-21T05:49:25.854Z,72.10
2022-11-21T05:51:27.456Z,72.00
2022-11-21T05:53:29.094Z,71.90
2022-11-21T05:55:30.828Z,71.90
2022-11-21T05:57:32.530Z,72.00
2022-11-21T05:59:34.200Z,72.10
2022-11-21T06:01:54.587Z,72.10
2022-11-21T06:03:56.260Z,72.10
2022-11-21T06:05:58.704Z,71.90
2022-11-21T06:08:00.370Z,71.80
2022-11-21T06:10:02.051Z,72.00
2022-11-21T06:12:03.757Z,72.20
2022-11-21T06:14:05.448Z,72.20
2022-11-21T06:16:08.521Z,72.10
2022-11-21T06:18:10.149Z,72.00
2022-11-21T06:20:11.812Z,72.80
2022-11-21T06:22:13.411Z,72.00
2022-11-21T06:24:19.354Z,72.00
2022-11-21T06:26:25.308Z,72.20
2022-11-21T06:28:27.554Z,72.40
2022-11-21T06:30:29.158Z,72.50
2022-11-21T06:32:35.974Z,72.50
2022-11-21T06:34:37.872Z,72.60
2022-11-21T06:36:39.536Z,72.50
2022-11-21T06:38:41.398Z,72.50
2022-11-21T06:40:43.013Z,72.50
2022-11-21T06:42:44.643Z,72.50
2022-11-21T06:44:46.276Z,72.50
2022-11-21T06:46:51.192Z,72.60
2022-11-21T06:48:53.475Z,72.50
2022-11-21T06:50:55.143Z,72.70
2022-11-21T06:52:57.452Z,72.70
2022-11-21T06:54:59.333Z,72.70
2022-11-21T06:57:01.540Z,72.50
2022-11-21T06:59:03.276Z,72.50
2022-11-21T07:01:09.731Z,72.50
2022-11-21T07:03:11.405Z,72.30
2022-11-21T07:05:13.028Z,72.20
2022-11-21T07:07:14.704Z,72.10
2022-11-21T07:09:33.683Z,72.10
2022-11-21T07:11:35.899Z,72.20
2022-11-21T07:13:37.543Z,72.10
2022-11-21T07:15:39.185Z,72.10
2022-11-21T07:17:40.855Z,72.10
2022-11-21T07:19:42.479Z,72.20
2022-11-21T07:21:44.095Z,72.30
2022-11-21T07:23:45.853Z,72.20
2022-11-21T07:25:48.003Z,72.10
2022-11-21T07:27:49.682Z,72.00
2022-11-21T07:29:51.803Z,71.80
2022-11-21T07:31:54.433Z,71.80
2022-11-21T07:33:56.138Z,71.70
2022-11-21T07:35:58.087Z,71.70
2022-11-21T07:38:00.017Z,71.60
2022-11-21T07:40:01.634Z,71.70
2022-11-21T07:42:03.315Z,71.70
2022-11-21T07:44:05.022Z,71.50
2022-11-21T07:46:06.611Z,71.30
2022-11-21T07:48:09.434Z,71.30
2022-11-21T07:50:11.869Z,71.50
2022-11-21T07:52:13.523Z,71.80
2022-11-21T07:54:15.163Z,71.70
2022-11-21T07:56:16.822Z,71.50
2022-11-21T07:58:18.502Z,71.50
2022-11-21T08:00:20.192Z,71.90
2022-11-21T08:02:26.026Z,71.90
2022-11-21T08:04:28.250Z,72.10
2022-11-21T08:06:29.923Z,72.20
2022-11-21T08:08:31.606Z,72.10
2022-11-21T08:10:33.480Z,72.10
2022-11-21T08:12:35.107Z,72.20
2022-11-21T08:14:37.105Z,72.10
2022-11-21T08:16:38.794Z,72.10
2022-11-21T08:18:40.448Z,71.90
2022-11-21T08:20:42.721Z,71.80
2022-11-21T08:22:44.368Z,71.70
2022-11-21T08:24:46.033Z,71.70
2022-11-21T08:26:47.789Z,71.70
2022-11-21T08:28:49.458Z,71.80
2022-11-21T08:30:51.135Z,71.80
2022-11-21T08:32:52.802Z,71.70
2022-11-21T08:34:54.469Z,71.70
2022-11-21T08:36:56.617Z,71.70
2022-11-21T08:38:58.359Z,71.70
2022-11-21T08:41:18.669Z,71.70
2022-11-21T08:43:20.309Z,72.50
2022-11-21T08:45:21.985Z,71.90
2022-11-21T08:47:24.165Z,71.90
2022-11-21T08:49:25.903Z,72.00
2022-11-21T08:51:27.566Z,71.90
2022-11-21T08:53:29.250Z,71.80
2022-11-21T08:55:31.152Z,71.90
2022-11-21T08:57:37.218Z,71.80
2022-11-21T08:59:38.859Z,72.00
2022-11-21T09:01:40.525Z,72.10
2022-11-21T09:03:42.224Z,72.00
2022-11-21T09:05:43.941Z,71.80
2022-11-21T09:07:45.782Z,71.90
2022-11-21T09:09:47.578Z,71.80
2022-11-21T09:11:49.254Z,71.90
2022-11-21T09:14:10.143Z,71.80
2022-11-21T09:16:30.825Z,72.00
2022-11-21T09:18:32.487Z,72.00
2022-11-21T09:20:38.522Z,71.70
2022-11-21T09:22:40.323Z,71.70
2022-11-21T09:24:41.956Z,71.10
2022-11-21T09:26:44.169Z,71.00
2022-11-21T09:28:46.964Z,71.10
2022-11-21T09:30:48.758Z,71.10
2022-11-21T09:32:50.437Z,71.20
2022-11-21T09:34:52.089Z,71.20
2022-11-21T09:36:54.466Z,71.20
2022-11-21T09:38:57.988Z,71.30
2022-11-21T09:41:30.673Z,71.30
2022-11-21T09:43:55.642Z,71.20
2022-11-21T09:46:09.889Z,71.20
2022-11-21T09:48:13.058Z,71.10
2022-11-21T09:50:14.747Z,71.20
2022-11-21T09:52:17.888Z,71.30
2022-11-21T09:54:40.788Z,71.30
2022-11-21T09:56:43.420Z,71.30
2022-11-21T09:59:08.216Z,71.50
2022-11-21T10:01:13.691Z,71.30
2022-11-21T10:03:19.397Z,71.30
2022-11-21T10:05:35.133Z,71.30
2022-11-21T10:07:37.208Z,71.50
2022-11-21T10:09:38.863Z,71.60
2022-11-21T10:12:03.296Z,71.30
2022-11-21T10:14:21.985Z,71.20
2022-11-21T10:16:46.589Z,71.20
2022-11-21T10:19:04.062Z,71.30
2022-11-21T10:21:14.679Z,71.20
2022-11-21T10:23:16.383Z,71.10
2022-11-21T10:25:27.167Z,70.70
2022-11-21T10:27:37.070Z,70.70
2022-11-21T10:29:40.056Z,70.70
2022-11-21T10:31:43.202Z,70.70
2022-11-21T10:33:45.002Z,70.80
2022-11-21T10:35:48.604Z,70.80
2022-11-21T11:26:22.634Z,69.10
2022-11-21T11:28:25.689Z,68.80
2022-11-21T11:30:27.504Z,68.70
2022-11-21T11:32:29.346Z,68.60
2022-11-21T11:34:49.676Z,68.70
2022-11-21T11:36:54.438Z,68.30
2022-11-21T11:38:57.584Z,68.20
2022-11-21T11:41:01.088Z,68.30
2022-11-21T11:43:38.526Z,68.40
2022-11-21T11:45:58.544Z,68.00
2022-11-21T11:48:01.353Z,68.20
2022-11-21T11:50:23.987Z,68.90
2022-11-21T11:52:28.668Z,68.30
2022-11-21T11:54:34.910Z,68.70
2022-11-21T11:56:38.278Z,68.70
2022-11-21T11:58:39.880Z,68.80
2022-11-21T12:00:41.565Z,68.90
2022-11-21T12:02:55.368Z,68.90
2022-11-21T12:05:07.604Z,68.80
2022-11-21T12:08:33.060Z,68.30
2022-11-21T12:10:01.515Z,68.30
2022-11-21T12:12:23.435Z,67.80
2022-11-21T12:15:02.851Z,67.90
2022-11-21T12:17:05.774Z,67.40
2022-11-21T12:19:10.804Z,67.50
2022-11-21T12:21:16.959Z,67.70
2022-11-21T12:23:18.966Z,68.50
2022-11-21T12:25:23.898Z,67.50
2022-11-21T12:27:31.047Z,68.60
2022-11-21T12:29:38.829Z,67.70
2022-11-21T12:31:47.137Z,67.30
2022-11-21T12:33:56.142Z,66.70
2022-11-21T12:36:16.668Z,66.80
2022-11-21T12:38:22.531Z,66.40
2022-11-21T12:40:24.173Z,66.40
2022-11-21T12:42:49.972Z,66.60
2022-11-21T12:44:51.688Z,66.80
2022-11-21T12:46:56.105Z,66.60
2022-11-21T12:49:24.354Z,67.00
2022-11-21T12:51:44.479Z,67.00
2022-11-21T12:54:20.374Z,66.70
2022-11-21T12:56:30.263Z,66.80
2022-11-21T12:58:35.514Z,67.00
2022-11-21T13:00:37.165Z,67.10
2022-11-21T13:03:11.304Z,67.10
2022-11-21T13:05:17.006Z,67.30
2022-11-21T13:07:19.305Z,67.70
2022-11-21T13:09:21.958Z,67.00
2022-11-21T13:11:59.152Z,67.20
2022-11-21T13:14:15.589Z,67.20
2022-11-21T13:16:45.914Z,67.00
2022-11-21T13:18:49.420Z,66.80
2022-11-21T13:20:52.056Z,66.50
2022-11-21T13:22:55.072Z,66.70
2022-11-21T13:24:57.967Z,66.50
2022-11-21T13:26:59.642Z,65.70
2022-11-21T13:29:08.387Z,65.00
2022-11-21T13:31:26.857Z,65.60
2022-11-21T13:33:34.657Z,66.00
2022-11-21T13:35:39.104Z,66.30
2022-11-21T13:37:49.962Z,65.80
2022-11-21T13:39:51.680Z,66.50
2022-11-21T13:42:22.270Z,66.20
2022-11-21T13:44:30.156Z,66.10
2022-11-21T13:46:50.356Z,66.20
2022-11-21T13:49:01.413Z,66.10
2022-11-21T13:51:03.401Z,65.90
2022-11-21T13:53:29.202Z,66.10
2022-11-21T13:55:36.877Z,66.50
2022-11-21T13:58:02.534Z,66.50
2022-11-21T14:00:19.510Z,66.60
2022-11-21T14:02:29.221Z,66.60
2022-11-21T14:04:36.586Z,66.90
2022-11-21T14:06:39.465Z,67.10
2022-11-21T14:08:41.478Z,67.10
2022-11-21T14:10:43.487Z,67.20
2022-11-21T14:12:47.715Z,67.40
2022-11-21T14:14:49.636Z,67.60
2022-11-21T14:16:54.940Z,67.40
2022-11-21T14:18:57.623Z,66.80
2022-11-21T14:21:00.883Z,66.50
2022-11-21T14:23:19.368Z,66.40
2022-11-21T14:25:23.758Z,66.60
2022-11-21T14:27:40.859Z,66.50
2022-11-21T14:29:47.057Z,66.40
2022-11-21T14:31:49.501Z,66.40
2022-11-21T14:33:56.094Z,66.40
2022-11-21T14:36:16.171Z,66.20
2022-11-21T14:38:19.280Z,66.50
2022-11-21T14:40:22.622Z,66.40
2022-11-21T14:42:24.471Z,66.20
2022-11-21T14:44:26.903Z,65.90
2022-11-21T14:46:30.274Z,65.90
2022-11-21T14:48:32.087Z,66.10
2022-11-21T14:50:34.558Z,66.10
2022-11-21T14:52:36.563Z,66.10
2022-11-21T14:57:21.908Z,66.10
2022-11-21T14:59:29.003Z,65.90
2022-11-21T15:01:32.117Z,66.10
2022-11-21T15:03:34.312Z,66.30
2022-11-21T15:08:23.901Z,66.30
2022-11-21T15:10:29.171Z,66.60
2022-11-21T15:12:38.567Z,66.70
2022-11-21T15:14:47.284Z,66.70
2022-11-21T15:16:51.081Z,66.50
2022-11-21T15:18:52.827Z,66.80
2022-11-21T15:20:55.494Z,66.80
2022-11-21T15:23:01.301Z,66.70
2022-11-21T15:25:17.903Z,66.80
2022-11-21T15:27:28.521Z,66.70
2022-11-21T15:29:31.230Z,66.80
2022-11-21T15:31:33.179Z,66.70
2022-11-21T15:34:19.237Z,66.80
2022-11-21T15:36:15.476Z,67.00
2022-11-21T15:38:29.236Z,66.80
2022-11-21T15:40:30.969Z,67.00
2022-11-21T15:42:32.631Z,67.00
2022-11-21T15:44:34.308Z,67.00
2022-11-21T15:46:42.363Z,67.10
2022-11-21T15:48:48.245Z,67.20
2022-11-21T15:50:52.254Z,67.10
2022-11-21T15:52:57.807Z,67.00
2022-11-21T15:54:59.506Z,67.00
2022-11-21T15:57:01.203Z,67.10
2022-11-21T15:59:03.231Z,67.20
2022-11-21T16:01:05.024Z,67.10
2022-11-21T16:03:06.743Z,67.10
2022-11-21T16:05:12.589Z,67.00
2022-11-21T16:07:14.352Z,67.10
2022-11-21T16:09:16.037Z,67.00
2022-11-21T16:11:28.154Z,66.90
2022-11-21T16:13:29.896Z,66.90
2022-11-21T16:15:31.684Z,66.80
2022-11-21T16:17:33.447Z,67.00
2022-11-21T16:19:35.226Z,67.10
2022-11-21T16:21:37.213Z,66.80
2022-11-21T16:23:39.323Z,66.80
2022-11-21T16:25:54.013Z,66.80
2022-11-21T16:27:56.459Z,66.90
2022-11-21T16:29:58.280Z,68.00
2022-11-21T16:32:00.014Z,67.00
2022-11-21T16:34:01.855Z,67.00
2022-11-21T16:36:03.583Z,66.80
2022-11-21T16:38:08.876Z,67.00
2022-11-21T16:40:10.733Z,66.90
2022-11-21T16:42:12.414Z,67.10
2022-11-21T16:44:15.214Z,67.20
2022-11-21T16:46:17.898Z,67.20
2022-11-21T16:48:20.379Z,67.30
2022-11-21T16:50:22.151Z,67.40
2022-11-21T16:52:23.871Z,67.20
2022-11-21T16:54:25.764Z,67.30
2022-11-21T16:56:30.060Z,67.10
2022-11-21T16:58:31.982Z,67.10
2022-11-21T17:00:34.025Z,67.20
2022-11-21T17:02:37.001Z,67.20
2022-11-21T17:04:38.731Z,67.30
2022-11-21T17:06:40.553Z,67.40
2022-11-21T17:08:42.379Z,67.40
2022-11-21T17:10:44.069Z,67.60
2022-11-21T17:12:47.128Z,67.60
2022-11-21T17:14:49.348Z,67.40
2022-11-21T17:16:51.150Z,67.40
2022-11-21T17:18:53.839Z,67.50
2022-11-21T17:20:55.589Z,67.30
2022-11-21T17:22:57.333Z,67.40
2022-11-21T17:24:59.140Z,67.40
2022-11-21T17:27:02.573Z,67.40
2022-11-21T17:29:04.971Z,67.50
2022-11-21T17:31:07.823Z,67.50
2022-11-21T17:33:12.708Z,67.60
2022-11-21T17:35:14.570Z,67.70
2022-11-21T17:37:16.322Z,67.70
2022-11-21T17:39:18.129Z,67.70
2022-11-21T17:41:20.612Z,67.80
2022-11-21T17:43:22.361Z,67.90
2022-11-21T17:45:24.140Z,67.80
2022-11-21T17:47:25.852Z,67.90
2022-11-21T17:49:30.348Z,67.90
2022-11-21T17:51:37.774Z,68.00
2022-11-21T17:53:47.142Z,68.00
2022-11-21T17:55:49.683Z,68.00
2022-11-21T17:57:51.362Z,68.00
2022-11-21T17:59:53.133Z,67.90
2022-11-21T18:01:55.445Z,67.90
2022-11-21T18:03:58.293Z,67.80
2022-11-21T18:06:10.547Z,67.90
2022-11-21T18:08:12.587Z,68.00
2022-11-21T18:10:41.528Z,67.90
2022-11-21T18:12:36.054Z,68.00
2022-11-21T18:14:37.815Z,68.00
2022-11-21T18:16:40.257Z,67.70
2022-11-21T18:18:42.288Z,67.80
2022-11-21T18:20:44.451Z,67.80
2022-11-21T18:22:48.748Z,67.70
2022-11-21T18:24:50.547Z,67.60
2022-11-21T18:26:52.415Z,67.50
2022-11-21T18:29:20.485Z,67.10
2022-11-21T18:31:21.594Z,67.20
2022-11-21T18:33:23.323Z,67.30
2022-11-21T18:35:26.517Z,67.20
2022-11-21T18:37:29.011Z,67.10
2022-11-21T18:39:30.958Z,67.20
2022-11-21T18:41:38.386Z,67.20
2022-11-21T18:43:40.671Z,67.30
2022-11-21T18:45:42.393Z,67.40
2022-11-21T18:47:44.353Z,67.40
2022-11-21T18:49:46.147Z,67.20
2022-11-21T18:51:48.455Z,67.30
2022-11-21T18:53:51.549Z,67.40
2022-11-21T18:55:53.303Z,68.00
2022-11-21T18:57:55.940Z,67.10
2022-11-21T18:59:57.594Z,66.60
2022-11-21T19:01:59.341Z,66.90
2022-11-21T19:04:01.283Z,67.20
2022-11-21T19:06:05.666Z,66.60
2022-11-21T19:08:07.605Z,66.60
2022-11-21T19:10:35.562Z,66.60
2022-11-21T19:12:36.262Z,66.70
2022-11-21T19:14:41.011Z,66.70
2022-11-21T19:16:42.783Z,66.80
2022-11-21T19:18:51.293Z,66.10
2022-11-21T19:21:02.787Z,65.80
2022-11-21T19:23:04.949Z,66.20
2022-11-21T19:25:06.874Z,66.00
2022-11-21T19:27:08.710Z,67.10
2022-11-21T19:29:10.830Z,66.60
2022-11-21T19:31:14.235Z,66.20
2022-11-21T19:33:16.865Z,66.20
2022-11-21T19:35:19.078Z,66.40
2022-11-21T19:37:20.847Z,66.30
2022-11-21T19:39:25.098Z,66.00
2022-11-21T19:41:27.068Z,66.30
2022-11-21T19:43:29.335Z,66.40
2022-11-21T19:45:31.231Z,66.50
2022-11-21T19:47:33.459Z,66.60
2022-11-21T19:49:35.304Z,66.50
2022-11-21T19:51:38.405Z,66.70
2022-11-21T19:53:40.268Z,66.60
2022-11-21T19:55:42.158Z,66.80
2022-11-21T19:57:43.929Z,66.40
2022-11-21T19:59:47.010Z,66.10
2022-11-21T20:01:52.653Z,66.00
2022-11-21T20:03:56.129Z,66.30
2022-11-21T20:06:02.052Z,66.50
2022-11-21T20:08:11.122Z,66.30
2022-11-21T20:10:18.354Z,66.30
2022-11-21T20:12:20.195Z,66.20
2022-11-21T20:14:23.021Z,65.90
2022-11-21T20:16:26.237Z,66.00
2022-11-21T20:18:28.970Z,66.00
2022-11-21T20:20:30.763Z,66.10
2022-11-21T20:22:32.602Z,66.00
2022-11-21T20:24:39.974Z,66.20
2022-11-21T20:26:43.981Z,66.50
2022-11-21T20:28:45.785Z,66.50
2022-11-21T20:30:47.567Z,66.30
2022-11-21T20:32:49.360Z,66.20
2022-11-21T20:34:51.314Z,66.30
2022-11-21T20:36:53.287Z,66.20
2022-11-21T20:38:55.201Z,66.10
2022-11-21T20:40:59.207Z,66.20
2022-11-21T20:43:01.153Z,66.30
2022-11-21T20:47:25.407Z,66.50
2022-11-21T20:49:27.654Z,66.40
2022-11-21T20:53:55.187Z,66.50
2022-11-21T20:56:03.472Z,66.60
2022-11-21T20:58:05.386Z,66.70
2022-11-21T21:00:07.673Z,66.60
2022-11-21T21:02:12.326Z,66.70
2022-11-21T21:04:14.275Z,66.80
2022-11-21T21:06:16.821Z,66.70
2022-11-21T21:08:18.728Z,66.80
2022-11-21T21:10:23.263Z,66.70
2022-11-21T21:12:25.098Z,66.70
2022-11-21T21:14:27.041Z,66.70
2022-11-21T21:16:34.392Z,66.90
2022-11-21T21:18:36.639Z,66.80
2022-11-21T21:21:01.717Z,67.00
2022-11-21T21:23:01.058Z,67.00
2022-11-21T21:25:03.143Z,68.00
2022-11-21T21:27:05.067Z,67.00
2022-11-21T21:29:07.111Z,67.10
2022-11-21T21:31:13.025Z,67.10
2022-11-21T21:33:16.601Z,67.20
2022-11-21T21:35:18.439Z,67.10
2022-11-21T21:37:20.192Z,67.10
2022-11-21T21:39:24.972Z,67.30
2022-11-21T21:41:27.771Z,67.30
2022-11-21T21:43:29.902Z,67.40
2022-11-21T21:45:31.917Z,67.40
2022-11-21T21:47:33.619Z,67.50
2022-11-21T21:49:35.414Z,67.50
2022-11-21T21:51:37.767Z,67.60
2022-11-21T21:53:39.661Z,67.70
2022-11-21T21:55:41.377Z,67.70
2022-11-21T21:57:48.314Z,67.70
2022-11-21T21:59:52.907Z,67.70
2022-11-21T22:01:54.584Z,67.80
2022-11-21T22:03:57.702Z,67.90
2022-11-21T22:06:06.734Z,68.00
2022-11-21T22:08:08.429Z,68.00
2022-11-21T22:10:10.122Z,68.00
2022-11-21T22:12:11.917Z,68.00
2022-11-21T22:14:14.999Z,68.10
2022-11-21T22:16:16.695Z,68.10
2022-11-21T22:18:18.403Z,68.10
2022-11-21T22:20:20.078Z,68.20
2022-11-21T22:22:21.893Z,68.20
2022-11-21T22:24:26.061Z,68.20
2022-11-21T22:26:28.811Z,68.20
2022-11-21T22:28:31.327Z,68.20
2022-11-21T22:30:33.156Z,68.30
2022-11-21T22:32:34.867Z,68.10
2022-11-21T22:34:36.674Z,68.10
2022-11-21T22:36:38.454Z,68.20
2022-11-21T22:38:40.206Z,68.30
2022-11-21T22:40:42.044Z,68.40
2022-11-21T22:42:43.706Z,68.40
2022-11-21T22:44:45.384Z,68.50
2022-11-21T22:46:47.087Z,68.50
2022-11-21T22:48:49.122Z,68.50
2022-11-21T22:50:50.759Z,68.50
2022-11-21T22:52:52.461Z,68.40
2022-11-21T22:54:54.165Z,68.40
2022-11-21T22:56:55.873Z,68.60
2022-11-21T22:58:57.662Z,68.70
2022-11-21T23:01:03.616Z,68.70
2022-11-21T23:03:05.294Z,68.70
2022-11-21T23:05:07.153Z,68.80
2022-11-21T23:07:09.001Z,68.80
2022-11-21T23:09:10.748Z,68.80
2022-11-21T23:11:16.524Z,69.00
2022-11-21T23:13:18.280Z,69.00
2022-11-21T23:15:20.045Z,69.10
2022-11-21T23:17:21.789Z,69.00
2022-11-21T23:19:23.529Z,69.00
2022-11-21T23:21:25.310Z,69.00
2022-11-21T23:23:27.009Z,69.00
2022-11-21T23:25:28.721Z,69.10
2022-11-21T23:27:30.390Z,68.90
2022-11-21T23:29:32.295Z,68.80
2022-11-21T23:31:34.065Z,68.80
2022-11-21T23:33:35.826Z,68.70
2022-11-21T23:35:37.517Z,68.70
2022-11-21T23:37:39.177Z,68.90
2022-11-21T23:39:40.798Z,69.00
2022-11-21T23:41:42.436Z,69.10
2022-11-21T23:43:44.140Z,69.20
2022-11-21T23:45:49.838Z,69.20
2022-11-21T23:47:51.560Z,69.20
2022-11-21T23:49:53.187Z,69.20
2022-11-21T23:51:54.807Z,69.20
2022-11-21T23:53:56.441Z,69.20
2022-11-21T23:55:58.684Z,69.40
2022-11-21T23:58:00.318Z,69.40
